Cullowhee, North Carolina
Current Conditions -  °F | °C
As of 10:54 PM on Tuesday 27 Jan 2015 (Local Time) from KAVL Reporting Station
Clear Clear  
Wind Chill: 14°   Ceiling: Unl
Heat Index: 28°   Visibility: 10mi
Dew Point: 19°   Wind: 23mph
Humidity: 69%   Direction: 350°N
Pressure: 30"   Gusts: 36mph
Location:  35.31°N, 83.18°W
Report Text: KAVL 280354Z AUTO 35020G31KT 10SM CLR M02/M07 A3000 RMK AO2 PK WND 35031/0346 SLP172 T10221072
Loading
Personal Weather Stations






























Interactive Weather Map New forecast layout! Learn more

10-Day Weather Forecast

Advertisements
Track Severe Weather on mobile